Time;durP1;ratioP1;P1;durP2;ratioP2;P2;SDS_P1;SDS_P2;PMS_P1;PMS_P2;Temp;Humidity;BMP_temperature;BMP_pressure;BME280_temperature;BME280_humidity;BME280_pressure;Samples;Min_cycle;Max_cycle;Signal;HPM_P1;HPM_P2
2022/04/30 00:02:01;;;;;;;;;;;;;;;18.08;44.71;101305.41;5078297;28;1973;-59
2022/04/30 00:04:27;;;;;;;;;;;;;;;18.09;44.86;101307.06;5078098;28;1391;-59
2022/04/30 00:06:52;;;;;;;;;;;;;;;18.17;44.89;101310.38;5076483;28;880;-59
2022/04/30 00:09:17;;;;;;;;;;;;;;;18.13;45.09;101304.56;5077911;28;788;-59
2022/04/30 00:11:43;;;;;;;;;;;;;;;18.27;44.91;101302.97;5078798;28;731;-59
2022/04/30 00:14:08;;;;;;;;;;;;;;;18.18;44.67;101303.78;5078279;28;1165;-59
2022/04/30 00:16:34;;;;;;;;;;;;;;;18.00;44.05;101300.41;5077937;28;939;-59
2022/04/30 00:18:59;;;;;;;;;;;;;;;17.85;43.02;101292.09;5078615;28;948;-59
2022/04/30 00:21:25;;;;;;;;;;;;;;;17.68;42.11;101293.13;5077411;28;1909;-59
2022/04/30 00:23:50;;;;;;;;;;;;;;;17.46;41.51;101293.31;5079865;28;875;-59
2022/04/30 00:26:16;;;;;;;;;;;;;;;17.37;40.66;101301.22;5077999;28;818;-59
2022/04/30 00:28:41;;;;;;;;;;;;;;;17.22;40.26;101298.38;5077581;28;956;-59
2022/04/30 00:31:08;;;;;;;;;;;;;;;17.16;39.84;101289.25;5077970;28;930;-59
2022/04/30 00:33:34;;;;;;;;;;;;;;;17.07;39.71;101291.69;5077555;28;873;-59
2022/04/30 00:36:00;;;;;;;;;;;;;;;17.01;39.68;101297.41;5077745;28;749;-58
2022/04/30 00:38:25;;;;;;;;;;;;;;;16.96;39.52;101289.97;5078185;28;924;-58
2022/04/30 00:40:50;;;;;;;;;;;;;;;16.89;39.29;101283.88;5093014;28;1910;-58
2022/04/30 00:43:16;;;;;;;;;;;;;;;17.01;40.14;101287.25;5096834;28;786;-58
2022/04/30 00:45:47;;;;;;;;;;;;;;;17.18;41.26;101297.25;5096844;28;1380;-58
2022/04/30 00:48:13;;;;;;;;;;;;;;;17.36;42.32;101294.09;5083328;28;892;-59
2022/04/30 00:50:38;;;;;;;;;;;;;;;17.50;43.29;101294.44;5096972;28;753;-59
2022/04/30 00:53:05;;;;;;;;;;;;;;;17.71;43.90;101289.84;5096155;28;812;-59
2022/04/30 00:55:31;;;;;;;;;;;;;;;17.75;44.27;101292.88;5076885;28;825;-58
2022/04/30 00:57:58;;;;;;;;;;;;;;;17.83;44.42;101286.03;5077156;28;849;-58
2022/04/30 01:00:26;;;;;;;;;;;;;;;17.93;44.44;101286.09;5079774;28;826;-59
2022/04/30 01:03:03;;;;;;;;;;;;;;;17.96;44.72;101285.53;5075994;28;1980;-58
2022/04/30 01:05:43;;;;;;;;;;;;;;;18.04;45.27;101281.47;5087308;28;1310;-58
2022/04/30 01:08:09;;;;;;;;;;;;;;;18.07;45.24;101276.22;5095242;28;820;-58
2022/04/30 01:10:34;;;;;;;;;;;;;;;18.13;45.03;101275.16;5076799;28;849;-58
2022/04/30 01:12:59;;;;;;;;;;;;;;;18.18;45.09;101284.53;5082232;28;1237;-58
2022/04/30 01:15:25;;;;;;;;;;;;;;;18.19;45.41;101288.91;5080918;28;749;-58
2022/04/30 01:17:51;;;;;;;;;;;;;;;18.23;45.27;101290.84;5094779;28;897;-58
2022/04/30 01:20:16;;;;;;;;;;;;;;;18.26;45.04;101279.28;5096591;28;765;-58
2022/04/30 01:23:01;;;;;;;;;;;;;;;18.15;44.50;101287.81;5096303;28;1914;-59
2022/04/30 01:25:27;;;;;;;;;;;;;;;17.95;43.59;101287.47;5076672;28;908;-58
2022/04/30 01:27:53;;;;;;;;;;;;;;;17.77;42.53;101288.75;5076994;28;888;-58
2022/04/30 01:30:19;;;;;;;;;;;;;;;17.60;41.40;101283.47;5076844;28;865;-58
2022/04/30 01:38:12;;;;;;;;;;;;;;;17.14;39.56;101274.97;5086980;28;865;-58
2022/04/30 01:40:38;;;;;;;;;;;;;;;17.10;39.40;101280.16;5076652;28;832;-58
2022/04/30 01:43:05;;;;;;;;;;;;;;;17.01;39.20;101276.28;5076890;28;1914;-58
2022/04/30 01:45:30;;;;;;;;;;;;;;;16.92;39.39;101277.84;5075204;28;965;-58
2022/04/30 01:47:56;;;;;;;;;;;;;;;16.88;39.17;101273.94;5076645;28;773;-59
2022/04/30 01:50:22;;;;;;;;;;;;;;;16.88;39.38;101266.53;5076750;28;845;-59
2022/04/30 01:52:48;;;;;;;;;;;;;;;17.14;41.19;101277.72;5076735;28;868;-58
2022/04/30 01:55:13;;;;;;;;;;;;;;;17.50;43.15;101280.69;5076574;28;845;-58
2022/04/30 01:57:39;;;;;;;;;;;;;;;17.85;45.01;101272.81;5076357;28;854;-58
2022/04/30 02:00:05;;;;;;;;;;;;;;;18.23;45.81;101268.00;5076569;28;834;-58
2022/04/30 02:02:38;;;;;;;;;;;;;;;18.45;46.82;101263.09;5089025;28;1901;-58
2022/04/30 02:05:05;;;;;;;;;;;;;;;18.64;47.30;101259.78;5075475;28;734;-58
2022/04/30 02:07:31;;;;;;;;;;;;;;;18.64;47.04;101268.03;5076148;28;809;-58
2022/04/30 02:09:57;;;;;;;;;;;;;;;18.33;46.16;101261.69;5076422;28;866;-58
2022/04/30 02:12:22;;;;;;;;;;;;;;;18.06;44.73;101263.59;5075344;28;910;-58
2022/04/30 02:14:51;;;;;;;;;;;;;;;17.77;43.18;101266.75;5074679;28;1128;-58
2022/04/30 02:17:17;;;;;;;;;;;;;;;17.63;42.13;101265.59;5095347;28;885;-58
2022/04/30 02:22:30;;;;;;;;;;;;;;;17.27;40.06;101263.50;5094388;28;1901;-58
2022/04/30 02:24:56;;;;;;;;;;;;;;;17.15;39.67;101260.13;5078856;28;894;-58
2022/04/30 02:27:22;;;;;;;;;;;;;;;17.10;39.23;101260.94;5076368;28;869;-58
2022/04/30 02:29:47;;;;;;;;;;;;;;;17.07;39.15;101260.66;5077387;28;848;-58
2022/04/30 02:32:13;;;;;;;;;;;;;;;16.97;39.38;101261.41;5080237;28;829;-58
2022/04/30 02:34:39;;;;;;;;;;;;;;;17.11;40.12;101259.03;5080403;28;754;-58
2022/04/30 02:37:04;;;;;;;;;;;;;;;17.28;41.38;101267.09;5079935;28;882;-58
2022/04/30 02:39:30;;;;;;;;;;;;;;;17.44;42.64;101263.31;5079730;28;894;-58
2022/04/30 02:41:56;;;;;;;;;;;;;;;17.56;43.49;101265.03;5079514;28;1902;-58
2022/04/30 02:44:25;;;;;;;;;;;;;;;17.72;43.79;101268.66;5079817;28;809;-58
2022/04/30 02:46:52;;;;;;;;;;;;;;;17.82;44.23;101279.69;5093012;28;790;-58
2022/04/30 02:49:17;;;;;;;;;;;;;;;17.87;44.58;101265.16;5079982;28;825;-58
2022/04/30 02:51:43;;;;;;;;;;;;;;;17.96;44.62;101258.03;5079940;28;959;-58
2022/04/30 02:54:09;;;;;;;;;;;;;;;18.03;44.74;101266.03;5082388;28;772;-58
2022/04/30 02:56:34;;;;;;;;;;;;;;;18.02;45.40;101256.97;5092370;28;853;-58
2022/04/30 03:01:45;;;;;;;;;;;;;;;18.09;45.08;101245.66;5087396;28;2226;-58
2022/04/30 03:04:33;;;;;;;;;;;;;;;18.17;44.98;101244.31;5071352;28;1219;-58
2022/04/30 03:06:59;;;;;;;;;;;;;;;18.17;45.16;101241.56;5079142;28;768;-58
2022/04/30 03:09:24;;;;;;;;;;;;;;;18.23;45.06;101243.22;5079214;28;973;-58
2022/04/30 03:11:50;;;;;;;;;;;;;;;18.24;44.90;101242.13;5079421;28;1080;-58
2022/04/30 03:14:15;;;;;;;;;;;;;;;18.26;44.90;101251.78;5078857;28;1072;-58
2022/04/30 03:22:09;;;;;;;;;;;;;;;17.92;43.24;101256.91;5079162;28;1977;-58
2022/04/30 03:24:35;;;;;;;;;;;;;;;17.73;42.42;101249.13;5079450;28;858;-58
2022/04/30 03:27:00;;;;;;;;;;;;;;;17.55;41.32;101246.88;5085554;28;860;-58
2022/04/30 03:29:26;;;;;;;;;;;;;;;17.42;40.40;101248.19;5098062;28;886;-58
2022/04/30 03:31:51;;;;;;;;;;;;;;;17.27;39.89;101248.94;5089253;28;1138;-57
2022/04/30 03:34:17;;;;;;;;;;;;;;;17.21;39.39;101247.28;5078859;28;826;-59
2022/04/30 03:36:43;;;;;;;;;;;;;;;17.05;39.32;101255.38;5086255;28;754;-60
2022/04/30 03:39:09;;;;;;;;;;;;;;;17.04;38.87;101258.41;5088969;28;863;-61
2022/04/30 03:41:34;;;;;;;;;;;;;;;16.97;39.05;101263.31;5077752;28;1971;-61
2022/04/30 03:44:01;;;;;;;;;;;;;;;17.07;39.71;101263.41;5077368;28;931;-61
2022/04/30 03:46:27;;;;;;;;;;;;;;;17.22;41.18;101268.97;5078897;28;806;-60
2022/04/30 03:48:53;;;;;;;;;;;;;;;17.41;42.04;101276.78;5078479;28;834;-60
2022/04/30 03:51:28;;;;;;;;;;;;;;;17.56;42.56;101278.78;5078365;28;781;-60
2022/04/30 03:53:53;;;;;;;;;;;;;;;17.65;43.19;101268.91;5078570;28;823;-61
2022/04/30 03:56:19;;;;;;;;;;;;;;;17.71;43.50;101278.84;5088847;28;1381;-62
2022/04/30 03:58:47;;;;;;;;;;;;;;;17.81;43.59;101279.97;5078485;28;785;-63
2022/04/30 04:01:13;;;;;;;;;;;;;;;17.86;44.04;101274.50;5078122;28;1898;-64
2022/04/30 04:03:39;;;;;;;;;;;;;;;17.86;44.05;101274.50;5078409;28;862;-64
2022/04/30 04:06:04;;;;;;;;;;;;;;;17.91;43.99;101280.06;5078405;28;818;-64
2022/04/30 04:08:30;;;;;;;;;;;;;;;17.94;44.12;101285.00;5081718;28;906;-62
2022/04/30 04:10:55;;;;;;;;;;;;;;;18.05;44.13;101283.13;5084290;28;817;-62
2022/04/30 04:18:51;;;;;;;;;;;;;;;18.12;44.42;101291.94;5091808;28;822;-62
2022/04/30 04:21:18;;;;;;;;;;;;;;;18.14;44.49;101295.22;5097524;28;1886;-63
2022/04/30 04:26:27;;;;;;;;;;;;;;;18.15;44.30;101299.66;5097707;28;770;-61
2022/04/30 04:28:52;;;;;;;;;;;;;;;18.16;44.77;101298.56;5097474;28;761;-61
2022/04/30 04:31:22;;;;;;;;;;;;;;;18.16;44.28;101305.97;5097436;28;977;-61
2022/04/30 04:33:47;;;;;;;;;;;;;;;18.08;43.80;101310.09;5097224;28;855;-60
2022/04/30 04:36:13;;;;;;;;;;;;;;;17.93;43.33;101302.59;5084832;28;1369;-63
2022/04/30 04:38:38;;;;;;;;;;;;;;;17.76;42.18;101298.09;5077286;28;1017;-58
2022/04/30 04:41:04;;;;;;;;;;;;;;;17.61;41.49;101300.78;5077488;28;1901;-61
2022/04/30 04:43:29;;;;;;;;;;;;;;;17.45;40.77;101306.22;5076161;28;928;-60
2022/04/30 04:45:55;;;;;;;;;;;;;;;17.40;40.11;101302.59;5077598;28;846;-59
2022/04/30 04:48:20;;;;;;;;;;;;;;;17.24;39.77;101304.44;5083791;28;822;-59
2022/04/30 04:50:46;;;;;;;;;;;;;;;17.18;39.73;101297.25;5077357;28;765;-60
2022/04/30 04:53:12;;;;;;;;;;;;;;;17.14;39.58;101290.63;5078198;28;878;-60
2022/04/30 04:55:38;;;;;;;;;;;;;;;17.08;39.32;101287.84;5077976;28;793;-58
2022/04/30 04:58:03;;;;;;;;;;;;;;;16.96;39.60;101284.47;5077135;28;723;-59
2022/04/30 05:00:29;;;;;;;;;;;;;;;16.96;39.50;101291.88;5078836;28;1465;-59
2022/04/30 05:02:54;;;;;;;;;;;;;;;16.95;39.35;101293.78;5077234;28;1989;-60
2022/04/30 05:05:19;;;;;;;;;;;;;;;17.00;39.70;101296.59;5078403;28;1192;-59
2022/04/30 05:07:45;;;;;;;;;;;;;;;17.17;40.92;101290.94;5077181;28;1168;-59
2022/04/30 05:10:10;;;;;;;;;;;;;;;17.38;41.83;101294.63;5080182;28;1269;-59
2022/04/30 05:12:36;;;;;;;;;;;;;;;17.57;42.77;101292.25;5080377;28;1320;-59
2022/04/30 05:15:01;;;;;;;;;;;;;;;17.70;43.60;101293.69;5079508;28;1253;-59
2022/04/30 05:17:27;;;;;;;;;;;;;;;17.79;44.04;101296.75;5079757;28;1112;-61
2022/04/30 05:19:52;;;;;;;;;;;;;;;17.86;44.48;101291.81;5081936;28;1245;-60
2022/04/30 05:22:18;;;;;;;;;;;;;;;17.97;44.80;101286.41;5078530;28;1981;-61
2022/04/30 05:24:44;;;;;;;;;;;;;;;18.05;44.82;101289.44;5080948;28;1341;-61
2022/04/30 05:27:09;;;;;;;;;;;;;;;18.08;45.06;101283.38;5079819;28;1296;-60
2022/04/30 05:29:35;;;;;;;;;;;;;;;18.20;45.54;101283.16;5080219;28;1328;-60
2022/04/30 05:32:00;;;;;;;;;;;;;;;18.26;45.39;101300.50;5082755;28;1316;-59
2022/04/30 05:34:27;;;;;;;;;;;;;;;18.30;45.57;101290.59;5083031;28;1169;-63
2022/04/30 05:36:53;;;;;;;;;;;;;;;18.36;45.89;101288.69;5084288;28;1079;-59
2022/04/30 05:39:18;;;;;;;;;;;;;;;18.25;45.50;101291.41;5083014;28;1095;-59
2022/04/30 05:41:44;;;;;;;;;;;;;;;18.08;44.83;101283.38;5091766;28;1971;-59
2022/04/30 05:44:09;;;;;;;;;;;;;;;17.92;43.97;101287.19;5086942;28;1148;-61
2022/04/30 05:46:35;;;;;;;;;;;;;;;17.77;42.85;101280.50;5079373;28;1197;-61
2022/04/30 05:49:00;;;;;;;;;;;;;;;17.53;41.72;101282.03;5082151;28;1277;-59
2022/04/30 05:51:26;;;;;;;;;;;;;;;17.41;41.05;101274.03;5077093;28;821;-59
2022/04/30 05:53:51;;;;;;;;;;;;;;;17.25;40.47;101278.59;5077089;28;1103;-59
2022/04/30 05:56:17;;;;;;;;;;;;;;;17.11;39.79;101281.00;5089571;28;1071;-60
2022/04/30 05:58:42;;;;;;;;;;;;;;;17.07;39.51;101279.88;5096428;28;884;-60
2022/04/30 06:01:09;;;;;;;;;;;;;;;16.95;39.55;101266.31;5081913;28;1914;-60
2022/04/30 06:03:34;;;;;;;;;;;;;;;16.94;39.33;101272.91;5077642;28;902;-60
2022/04/30 06:06:00;;;;;;;;;;;;;;;16.91;39.50;101260.53;5084618;28;782;-60
2022/04/30 06:08:25;;;;;;;;;;;;;;;17.23;41.52;101269.81;5080534;28;834;-60
2022/04/30 06:10:50;;;;;;;;;;;;;;;17.67;44.07;101277.72;5098705;28;722;-60
2022/04/30 06:13:16;;;;;;;;;;;;;;;18.15;45.91;101274.06;5092894;28;1052;-60
2022/04/30 06:15:41;;;;;;;;;;;;;;;18.56;46.76;101265.84;5092474;28;1094;-60
2022/04/30 06:18:08;;;;;;;;;;;;;;;18.71;47.39;101274.09;5088997;28;896;-60
2022/04/30 06:20:33;;;;;;;;;;;;;;;18.55;46.87;101269.69;5080582;28;818;-60
2022/04/30 06:22:59;;;;;;;;;;;;;;;18.18;45.72;101259.75;5080420;28;1978;-60
2022/04/30 06:25:24;;;;;;;;;;;;;;;17.88;44.05;101262.13;5097140;28;852;-60
2022/04/30 06:27:50;;;;;;;;;;;;;;;17.68;42.77;101262.84;5099918;28;820;-60
2022/04/30 06:30:15;;;;;;;;;;;;;;;17.50;41.37;101260.59;5092452;28;781;-60
2022/04/30 06:32:41;;;;;;;;;;;;;;;17.38;40.45;101269.06;5080017;28;820;-60
2022/04/30 06:35:06;;;;;;;;;;;;;;;17.19;39.97;101266.75;5079972;28;757;-60
2022/04/30 06:37:32;;;;;;;;;;;;;;;17.07;39.54;101263.41;5080476;28;727;-60
2022/04/30 06:39:57;;;;;;;;;;;;;;;17.03;39.38;101259.53;5080447;28;722;-60
2022/04/30 06:42:23;;;;;;;;;;;;;;;16.90;39.34;101263.53;5079618;28;1910;-60
2022/04/30 06:44:48;;;;;;;;;;;;;;;16.95;39.23;101266.31;5080435;28;757;-60
2022/04/30 06:47:14;;;;;;;;;;;;;;;16.99;40.25;101261.97;5079933;28;916;-60
2022/04/30 06:49:39;;;;;;;;;;;;;;;17.17;41.28;101262.63;5079776;28;841;-60
2022/04/30 06:52:05;;;;;;;;;;;;;;;17.37;42.47;101281.97;5079880;28;869;-60
2022/04/30 06:57:17;;;;;;;;;;;;;;;17.59;43.99;101268.06;5079266;28;869;-60
2022/04/30 06:59:45;;;;;;;;;;;;;;;17.69;44.43;101272.78;5079540;28;864;-60
2022/04/30 07:02:17;;;;;;;;;;;;;;;17.82;44.97;101278.88;5078253;28;1970;-60
2022/04/30 07:04:43;;;;;;;;;;;;;;;17.88;45.29;101275.03;5079544;28;897;-60
2022/04/30 07:07:08;;;;;;;;;;;;;;;17.94;45.32;101274.00;5079665;28;887;-60
2022/04/30 07:09:34;;;;;;;;;;;;;;;18.00;45.26;101283.91;5079754;28;833;-60
2022/04/30 07:12:04;;;;;;;;;;;;;;;18.04;45.66;101263.00;5079109;28;773;-60
2022/04/30 07:14:35;;;;;;;;;;;;;;;18.10;45.63;101286.72;5078954;28;982;-60
2022/04/30 07:17:05;;;;;;;;;;;;;;;18.16;45.60;101290.31;5079957;28;846;-60
2022/04/30 07:19:30;;;;;;;;;;;;;;;18.18;45.72;101276.25;5079544;28;726;-60
2022/04/30 07:21:56;;;;;;;;;;;;;;;18.23;45.88;101270.75;5081305;28;1906;-60
2022/04/30 07:24:21;;;;;;;;;;;;;;;18.23;45.82;101284.50;5078924;28;887;-60
2022/04/30 07:26:46;;;;;;;;;;;;;;;18.27;45.34;101277.38;5079163;28;808;-60
2022/04/30 07:29:12;;;;;;;;;;;;;;;18.08;45.09;101272.38;5080973;28;1194;-60
2022/04/30 07:31:37;;;;;;;;;;;;;;;17.95;44.24;101270.16;5081709;28;1221;-62
2022/04/30 07:34:04;;;;;;;;;;;;;;;17.69;42.99;101264.53;5082589;28;1289;-63
2022/04/30 07:36:29;;;;;;;;;;;;;;;17.54;41.91;101267.22;5083859;28;1241;-63
2022/04/30 07:38:55;;;;;;;;;;;;;;;17.41;40.95;101263.84;5079855;28;1297;-63
2022/04/30 07:41:20;;;;;;;;;;;;;;;17.32;40.50;101270.13;5093113;28;1918;-62
2022/04/30 07:43:46;;;;;;;;;;;;;;;17.21;39.75;101272.00;5098260;28;861;-62
2022/04/30 07:46:11;;;;;;;;;;;;;;;17.12;39.46;101259.84;5097572;28;826;-62
2022/04/30 07:48:37;;;;;;;;;;;;;;;17.03;39.21;101268.59;5078398;28;921;-61
2022/04/30 07:51:02;;;;;;;;;;;;;;;16.97;39.00;101277.03;5079131;28;1191;-60
2022/04/30 07:53:28;;;;;;;;;;;;;;;16.97;39.57;101279.78;5094033;28;937;-59
2022/04/30 07:55:54;;;;;;;;;;;;;;;17.11;40.43;101281.00;5098065;28;862;-59
2022/04/30 07:58:20;;;;;;;;;;;;;;;17.34;42.34;101281.69;5098085;28;788;-59
2022/04/30 08:00:45;;;;;;;;;;;;;;;17.87;45.19;101285.22;5079981;28;772;-59
2022/04/30 08:03:11;;;;;;;;;;;;;;;18.22;46.19;101288.38;5078145;28;1981;-59
2022/04/30 08:05:37;;;;;;;;;;;;;;;18.52;47.15;101286.75;5078592;28;828;-59
2022/04/30 08:08:03;;;;;;;;;;;;;;;18.69;47.47;101287.34;5081373;28;812;-59
2022/04/30 08:10:29;;;;;;;;;;;;;;;18.45;46.69;101282.38;5079511;28;806;-59
2022/04/30 08:12:59;;;;;;;;;;;;;;;18.11;45.80;101282.03;5079888;28;1144;-60
2022/04/30 08:15:25;;;;;;;;;;;;;;;17.88;44.23;101277.78;5078407;28;830;-59
2022/04/30 08:17:51;;;;;;;;;;;;;;;17.67;42.57;101274.97;5078184;28;784;-59
2022/04/30 08:20:16;;;;;;;;;;;;;;;17.49;41.43;101267.19;5078419;28;784;-59
2022/04/30 08:22:42;;;;;;;;;;;;;;;17.37;40.71;101267.41;5077990;28;1979;-59
2022/04/30 08:25:07;;;;;;;;;;;;;;;17.31;39.95;101266.56;5077055;28;986;-59
2022/04/30 08:27:33;;;;;;;;;;;;;;;17.23;39.87;101262.38;5077870;28;736;-59
2022/04/30 08:29:58;;;;;;;;;;;;;;;17.06;39.75;101261.72;5078116;28;904;-59
2022/04/30 08:32:24;;;;;;;;;;;;;;;17.02;39.52;101258.69;5085994;28;946;-59
2022/04/30 08:34:50;;;;;;;;;;;;;;;17.16;40.27;101267.28;5096602;28;842;-59
2022/04/30 08:37:15;;;;;;;;;;;;;;;17.22;41.05;101258.00;5093099;28;785;-59
2022/04/30 08:39:40;;;;;;;;;;;;;;;17.47;42.77;101256.44;5082503;28;860;-59
2022/04/30 08:42:06;;;;;;;;;;;;;;;17.74;44.55;101255.44;5076359;28;1980;-59
2022/04/30 08:44:32;;;;;;;;;;;;;;;18.15;45.74;101266.63;5077606;28;833;-59
2022/04/30 08:46:57;;;;;;;;;;;;;;;18.37;46.66;101271.03;5076587;28;1425;-59
2022/04/30 08:49:23;;;;;;;;;;;;;;;18.57;47.55;101273.00;5077742;28;793;-59
2022/04/30 08:51:48;;;;;;;;;;;;;;;18.56;47.34;101260.31;5076830;28;895;-59
2022/04/30 08:54:14;;;;;;;;;;;;;;;18.38;46.59;101259.75;5084107;28;1076;-60
2022/04/30 08:56:49;;;;;;;;;;;;;;;18.18;45.41;101270.75;5097546;28;801;-60
2022/04/30 08:59:15;;;;;;;;;;;;;;;18.00;44.00;101261.09;5090303;28;833;-60
2022/04/30 09:01:44;;;;;;;;;;;;;;;17.76;42.52;101262.34;5097341;28;1902;-60
2022/04/30 09:04:09;;;;;;;;;;;;;;;17.58;41.60;101262.81;5080339;28;849;-60
2022/04/30 09:06:43;;;;;;;;;;;;;;;17.47;40.62;101255.63;5077329;28;825;-60
2022/04/30 09:09:09;;;;;;;;;;;;;;;17.27;40.16;101258.00;5077200;28;926;-60
2022/04/30 09:11:37;;;;;;;;;;;;;;;17.21;39.67;101255.50;5077073;28;1475;-60
2022/04/30 09:14:03;;;;;;;;;;;;;;;17.14;39.40;101253.00;5075865;28;992;-60
2022/04/30 09:16:28;;;;;;;;;;;;;;;16.98;39.39;101257.53;5081195;28;818;-60
2022/04/30 09:19:00;;;;;;;;;;;;;;;16.96;39.10;101257.00;5076847;28;840;-60
2022/04/30 09:21:25;;;;;;;;;;;;;;;16.92;39.42;101267.69;5077273;28;1963;-60
2022/04/30 09:23:51;;;;;;;;;;;;;;;17.06;40.70;101262.56;5077611;28;886;-60
2022/04/30 09:26:16;;;;;;;;;;;;;;;17.44;42.94;101265.25;5095831;28;892;-60
2022/04/30 09:28:44;;;;;;;;;;;;;;;17.77;44.67;101261.25;5088159;28;915;-60
2022/04/30 09:31:13;;;;;;;;;;;;;;;18.14;46.19;101262.19;5076001;28;801;-60
2022/04/30 09:33:51;;;;;;;;;;;;;;;18.44;46.89;101269.69;5076196;28;809;-60
2022/04/30 09:39:10;;;;;;;;;;;;;;;18.42;47.29;101266.38;5078657;28;1021;-60
2022/04/30 09:41:35;;;;;;;;;;;;;;;18.23;45.95;101262.47;5076487;28;1922;-60
2022/04/30 09:44:07;;;;;;;;;;;;;;;18.04;44.27;101268.50;5076619;28;850;-60
2022/04/30 09:46:33;;;;;;;;;;;;;;;17.74;43.17;101261.81;5076641;28;1395;-61
2022/04/30 09:54:27;;;;;;;;;;;;;;;17.32;40.18;101264.63;5084571;28;878;-61
2022/04/30 09:56:53;;;;;;;;;;;;;;;17.18;39.71;101264.25;5076967;28;801;-58
2022/04/30 09:59:18;;;;;;;;;;;;;;;17.09;39.59;101259.25;5076919;28;813;-57
2022/04/30 10:01:44;;;;;;;;;;;;;;;17.02;39.37;101257.84;5074783;28;1966;-57
2022/04/30 10:04:13;;;;;;;;;;;;;;;16.96;39.24;101254.25;5076305;28;1389;-57
2022/04/30 10:06:43;;;;;;;;;;;;;;;16.97;39.46;101258.66;5080533;28;826;-57
2022/04/30 10:09:09;;;;;;;;;;;;;;;17.09;40.54;101250.22;5082170;28;938;-57
2022/04/30 10:11:43;;;;;;;;;;;;;;;17.37;42.15;101251.72;5076933;28;770;-57
2022/04/30 10:14:11;;;;;;;;;;;;;;;17.74;43.93;101261.81;5074831;28;1289;-57
2022/04/30 10:16:37;;;;;;;;;;;;;;;18.02;45.78;101256.97;5075904;28;809;-58
2022/04/30 10:19:15;;;;;;;;;;;;;;;18.33;46.70;101259.78;5076866;28;836;-58
2022/04/30 10:21:40;;;;;;;;;;;;;;;18.54;47.42;101249.59;5076304;28;1906;-57
2022/04/30 10:24:06;;;;;;;;;;;;;;;18.69;47.56;101248.78;5079263;28;840;-57
2022/04/30 10:26:31;;;;;;;;;;;;;;;18.53;46.93;101244.34;5076229;28;825;-58
2022/04/30 10:28:58;;;;;;;;;;;;;;;18.28;45.85;101248.75;5076371;28;876;-58
2022/04/30 10:31:23;;;;;;;;;;;;;;;18.05;44.33;101253.66;5076236;28;1036;-57
2022/04/30 10:33:49;;;;;;;;;;;;;;;17.80;43.12;101248.88;5079175;28;1223;-58
2022/04/30 10:36:15;;;;;;;;;;;;;;;17.65;41.74;101246.09;5074879;28;929;-58
2022/04/30 10:38:42;;;;;;;;;;;;;;;17.48;41.06;101247.13;5076741;28;840;-58
2022/04/30 10:41:11;;;;;;;;;;;;;;;17.36;40.38;101244.59;5076340;28;750;-58
2022/04/30 10:43:37;;;;;;;;;;;;;;;17.23;40.00;101234.88;5076678;28;1977;-58
2022/04/30 10:46:03;;;;;;;;;;;;;;;17.21;39.60;101247.28;5084338;28;895;-59
2022/04/30 10:48:29;;;;;;;;;;;;;;;17.08;39.24;101248.53;5095585;28;844;-57
2022/04/30 10:51:11;;;;;;;;;;;;;;;16.98;39.12;101248.50;5098408;28;844;-58
2022/04/30 10:53:39;;;;;;;;;;;;;;;17.03;39.75;101243.84;5094353;28;839;-58
2022/04/30 10:56:05;;;;;;;;;;;;;;;17.17;40.68;101252.47;5079594;28;729;-58
2022/04/30 10:58:31;;;;;;;;;;;;;;;17.35;41.73;101247.59;5079233;28;888;-58
2022/04/30 11:00:57;;;;;;;;;;;;;;;17.50;42.61;101249.59;5079643;28;797;-58
2022/04/30 11:03:26;;;;;;;;;;;;;;;17.56;43.25;101254.03;5079413;28;1918;-57
2022/04/30 11:05:52;;;;;;;;;;;;;;;17.64;43.83;101245.25;5079509;28;719;-57
2022/04/30 11:08:17;;;;;;;;;;;;;;;17.72;43.94;101244.72;5081326;28;905;-57
2022/04/30 11:10:50;;;;;;;;;;;;;;;17.81;44.28;101252.47;5082501;28;841;-57
2022/04/30 11:13:15;;;;;;;;;;;;;;;17.79;44.75;101248.06;5079639;28;1158;-57
2022/04/30 11:15:41;;;;;;;;;;;;;;;17.89;44.42;101247.28;5079244;28;827;-57
2022/04/30 11:18:06;;;;;;;;;;;;;;;17.88;44.79;101244.78;5079528;28;714;-57
2022/04/30 11:20:32;;;;;;;;;;;;;;;17.93;44.67;101247.56;5079360;28;892;-57
2022/04/30 11:22:58;;;;;;;;;;;;;;;18.01;44.53;101248.97;5081697;28;1975;-57
2022/04/30 11:25:33;;;;;;;;;;;;;;;18.00;44.73;101253.63;5083172;28;739;-57
2022/04/30 11:27:58;;;;;;;;;;;;;;;18.03;44.63;101247.59;5079432;28;834;-57
2022/04/30 11:30:24;;;;;;;;;;;;;;;18.01;44.86;101244.28;5078852;28;802;-57
2022/04/30 11:32:49;;;;;;;;;;;;;;;18.05;44.84;101245.41;5079678;28;860;-57
2022/04/30 11:35:19;;;;;;;;;;;;;;;18.05;44.94;101237.16;5080810;28;726;-57
2022/04/30 11:37:44;;;;;;;;;;;;;;;18.07;44.72;101237.69;5082586;28;856;-57
2022/04/30 11:40:10;;;;;;;;;;;;;;;17.93;43.80;101236.56;5079347;28;954;-57
2022/04/30 11:42:35;;;;;;;;;;;;;;;17.71;43.26;101240.34;5078984;28;1973;-57
2022/04/30 11:45:01;;;;;;;;;;;;;;;17.59;42.04;101221.31;5078806;28;865;-57
2022/04/30 11:47:26;;;;;;;;;;;;;;;17.42;41.15;101227.03;5078995;28;906;-58
2022/04/30 11:50:08;;;;;;;;;;;;;;;17.28;40.82;101223.13;5081267;28;844;-58
2022/04/30 11:52:33;;;;;;;;;;;;;;;17.14;40.06;101235.66;5078287;28;827;-59
2022/04/30 11:55:00;;;;;;;;;;;;;;;17.12;39.59;101233.19;5078927;28;986;-57
2022/04/30 11:57:25;;;;;;;;;;;;;;;17.06;39.20;101237.00;5078637;28;801;-58
2022/04/30 11:59:51;;;;;;;;;;;;;;;16.95;39.33;101230.63;5079085;28;738;-57
2022/04/30 12:02:16;;;;;;;;;;;;;;;17.01;39.45;101242.47;5077349;28;1901;-56
2022/04/30 12:04:42;;;;;;;;;;;;;;;17.06;40.27;101243.31;5080584;28;1154;-60
2022/04/30 12:07:08;;;;;;;;;;;;;;;17.21;41.25;101236.28;5097281;28;896;-59
2022/04/30 12:09:39;;;;;;;;;;;;;;;17.40;42.17;101234.72;5091981;28;936;-61
2022/04/30 12:12:21;;;;;;;;;;;;;;;17.52;43.06;101230.91;5097344;28;837;-60
2022/04/30 12:14:47;;;;;;;;;;;;;;;17.70;43.63;101226.88;5087142;28;1188;-60
2022/04/30 12:17:13;;;;;;;;;;;;;;;17.77;44.03;101224.69;5077786;28;830;-59
2022/04/30 12:25:13;;;;;;;;;;;;;;;18.02;44.93;101231.34;5091453;28;1006;-58
2022/04/30 12:27:38;;;;;;;;;;;;;;;18.04;45.05;101231.91;5083644;28;948;-58
2022/04/30 12:30:05;;;;;;;;;;;;;;;18.08;45.33;101222.84;5077757;28;746;-58
2022/04/30 12:32:32;;;;;;;;;;;;;;;18.13;45.33;101219.25;5078260;28;789;-58
2022/04/30 12:34:58;;;;;;;;;;;;;;;18.05;44.91;101230.84;5078042;28;799;-58
2022/04/30 12:37:33;;;;;;;;;;;;;;;17.93;44.19;101225.56;5077617;28;837;-58
2022/04/30 12:39:59;;;;;;;;;;;;;;;17.70;43.30;101218.63;5080137;28;1165;-58
2022/04/30 12:42:24;;;;;;;;;;;;;;;17.57;42.35;101211.66;5077654;28;1972;-58
2022/04/30 12:44:50;;;;;;;;;;;;;;;17.44;41.67;101213.81;5077574;28;766;-58
2022/04/30 12:47:15;;;;;;;;;;;;;;;17.33;41.11;101208.56;5077544;28;828;-58
2022/04/30 12:49:41;;;;;;;;;;;;;;;17.22;40.84;101207.69;5077927;28;905;-58
2022/04/30 12:52:06;;;;;;;;;;;;;;;17.19;40.35;101205.47;5082190;28;802;-58
2022/04/30 12:54:32;;;;;;;;;;;;;;;17.10;40.51;101210.66;5083992;28;852;-58
2022/04/30 12:56:57;;;;;;;;;;;;;;;17.10;40.14;101208.72;5075892;28;860;-57
2022/04/30 12:59:25;;;;;;;;;;;;;;;17.01;40.06;101210.34;5077386;28;862;-58
2022/04/30 13:01:50;;;;;;;;;;;;;;;16.96;40.05;101218.53;5077427;28;1988;-58
2022/04/30 13:04:17;;;;;;;;;;;;;;;16.95;40.15;101222.38;5077480;28;908;-58
2022/04/30 13:06:42;;;;;;;;;;;;;;;16.84;39.88;101217.88;5078793;28;796;-58
2022/04/30 13:14:55;;;;;;;;;;;;;;;17.28;42.48;101217.63;5054379;28;1050;-58
2022/04/30 13:17:22;;;;;;;;;;;;;;;17.40;43.23;101223.72;5070839;28;929;-58
2022/04/30 13:19:49;;;;;;;;;;;;;;;17.50;43.57;101216.59;5079031;28;782;-58
2022/04/30 13:22:14;;;;;;;;;;;;;;;17.54;43.87;101214.97;5076826;28;1887;-58
2022/04/30 13:24:40;;;;;;;;;;;;;;;17.63;44.19;101216.13;5077576;28;782;-58
2022/04/30 13:27:06;;;;;;;;;;;;;;;17.73;44.56;101218.88;5077047;28;849;-58
2022/04/30 13:29:32;;;;;;;;;;;;;;;17.78;44.62;101213.41;5086305;28;1088;-58
2022/04/30 13:31:57;;;;;;;;;;;;;;;17.82;44.92;101219.16;5077684;28;833;-58
2022/04/30 13:34:23;;;;;;;;;;;;;;;17.89;44.88;101216.16;5076779;28;919;-58
2022/04/30 13:36:48;;;;;;;;;;;;;;;17.92;44.96;101221.16;5076674;28;917;-58